Data for 05/25/2013

Time Sea-Level Adjusted Pressure Absolute Pressure Temperature Relative Humidity Dew Point   
(mb) (inHg) (mb) (inHg) (C) (F) (%) (C) (F)
00:05 1016 30 845 24.95 8.1 46.5 50 -1.8 28.8
00:10 1016 30 845 24.95 7.7 45.9 51 -1.8 28.8
00:15 1016 30 845 24.95 7.7 45.9 50 -2.2 28.1
00:20 1016 30 845 24.95 8.1 46.6 48 -2.2 28
00:25 1016 30 845 24.95 8.4 47 48 -2.1 28.2
00:30 1016 30 845 24.95 8.3 47 50 -1.4 29.5
00:35 1016 30 845 24.95 8 46.4 52 -1.3 29.6
00:40 1016 30 845 24.95 7.9 46.2 53 -1.1 30
00:45 1016 30 845 24.95 7.9 46.1 54 -0.8 30.6
00:50 1016 30 845 24.95 7.7 45.9 55 -0.7 30.8
00:55 1016 30 845 24.95 7.5 45.5 57 -0.4 31.3
01:00 1016 30 845 24.95 7.2 44.9 60 -0 31.9
01:05 1016 30 845 24.95 7 44.6 60 -0.2 31.7
01:10 1016 30 845 24.95 6.9 44.3 62 0 32.1
01:15 1016 30 845 24.95 6.8 44.2 62 0.1 32.2
01:20 1016 30 845 24.95 6.6 43.9 63 0.2 32.4
01:25 1016 30 845 24.95 6.4 43.5 64 0.1 32.2
01:30 1016 30 846 24.98 6.1 43.1 65 -0 31.9
01:35 1016 30 846 24.98 5.8 42.5 66 0 32.1
01:40 1016 30 846 24.98 5.4 41.8 68 0.1 32.2
01:45 1016 30 846 24.98 5.3 41.6 68 0 32
01:50 1016 30 846 24.98 5.3 41.6 69 0.1 32.2
01:55 1016 30 846 24.98 5.3 41.5 69 0.1 32.2
02:00 1016 30 846 24.98 5.1 41.1 71 0.2 32.3
02:05 1016 30 846 24.98 4.9 40.8 72 0.2 32.3
02:10 1016 30 846 24.98 4.8 40.7 72 0.3 32.5
02:15 1016 30 846 24.98 4.7 40.5 72 0.2 32.3
02:20 1017 30.03 846 24.98 4.7 40.4 73 0.2 32.3
02:25 1017 30.03 846 24.98 4.7 40.4 72 0.1 32.2
02:30 1017 30.03 846 24.98 4.8 40.7 72 0.2 32.3
02:35 1017 30.03 846 24.98 4.8 40.6 72 0.2 32.3
02:40 1017 30.03 846 24.98 4.6 40.3 72 0.1 32.2
02:45 1017 30.03 846 24.98 4.5 40.1 73 0.1 32.2
02:50 1017 30.03 846 24.98 4.4 40 73 0.1 32.2
02:55 1017 30.03 846 24.98 4.4 39.8 74 0.1 32.2
03:00 1017 30.03 846 24.98 4.1 39.5 75 0 32.1
03:05 1017 30.03 846 24.98 3.9 39 75 -0.1 31.9
03:10 1017 30.03 846 24.98 3.9 39 75 -0.1 31.8
03:15 1017 30.03 846 24.98 3.8 38.8 75 -0.2 31.7
03:20 1017 30.03 846 24.98 3.6 38.6 75 -0.4 31.3
03:25 1017 30.03 846 24.98 3.8 38.8 74 -0.4 31.3
03:30 1017 30.03 846 24.98 3.8 38.8 74 -0.4 31.3
03:35 1017 30.03 846 24.98 3.9 39 73 -0.5 31.2
03:40 1017 30.03 846 24.98 3.6 38.6 75 -0.4 31.3
03:45 1017 30.03 846 24.98 3.3 37.9 75 -0.7 30.7
03:50 1017 30.03 846 24.98 3.5 38.3 74 -0.8 30.6
03:55 1017 30.03 846 24.98 3.5 38.4 74 -0.7 30.8
04:00 1017 30.03 846 24.98 3.7 38.6 72 -1 30.2
04:05 1017 30.03 846 24.98 4 39.2 71 -0.9 30.4
04:10 1017 30.03 846 24.98 4 39.3 71 -0.8 30.5
04:15 1017 30.03 846 24.98 4 39.2 71 -0.7 30.7
04:20 1017 30.03 846 24.98 3.9 39 73 -0.4 31.2
04:25 1017 30.03 846 24.98 3.3 37.9 77 -0.4 31.2
04:30 1017 30.03 846 24.98 3.1 37.5 76 -0.8 30.6
04:35 1017 30.03 846 24.98 3 37.5 75 -0.9 30.4
04:40 1017 30.03 846 24.98 3 37.4 75 -1 30.3
04:45 1017 30.03 846 24.98 3.1 37.6 73 -1.2 29.9
04:50 1017 30.03 846 24.98 3.3 37.9 73 -1.1 30.1
04:55 1017 30.03 846 24.98 3.2 37.8 73 -1.2 29.9
05:00 1017 30.03 846 24.98 3.1 37.7 74 -1.1 30.1
05:05 1017 30.03 846 24.98 3.1 37.5 72 -1.5 29.4
05:10 1017 30.03 846 24.98 3.5 38.3 72 -1 30.1
05:15 1017 30.03 846 24.98 3.3 37.9 74 -0.8 30.5
05:20 1017 30.03 846 24.98 3 37.4 76 -0.8 30.6
05:25 1017 30.03 846 24.98 2.8 37.1 77 -0.9 30.4
05:30 1017 30.03 846 24.98 2.7 36.8 78 -0.8 30.6
05:35 1017 30.03 846 24.98 2.6 36.8 78 -0.8 30.6
05:40 1017 30.03 846 24.98 2.7 36.9 78 -0.7 30.7
05:45 1017 30.03 846 24.98 2.8 37.1 77 -0.7 30.7
05:50 1017 30.03 846 24.98 2.9 37.3 78 -0.6 30.9
05:55 1017 30.03 846 24.98 3.1 37.5 77 -0.6 30.9
06:00 1017 30.03 846 24.98 3.3 38 76 -0.4 31.2
06:05 1017 30.03 846 24.98 3.6 38.4 75 -0.4 31.3
06:10 1017 30.03 846 24.98 3.8 38.8 75 -0.3 31.4
06:15 1017 30.03 846 24.98 3.8 38.8 75 -0.1 31.7
06:20 1017 30.03 846 24.98 3.8 38.9 75 -0.2 31.6
06:25 1017 30.03 846 24.98 3.9 39.1 75 -0.1 31.8
06:30 1017 30.03 846 24.98 4.1 39.3 75 -0 32
06:35 1017 30.03 846 24.98 4.2 39.5 74 -0 32
06:40 1017 30.03 846 24.98 4.3 39.7 75 0.2 32.3
06:45 1017 30.03 846 24.98 4.7 40.4 72 0.1 32.2
06:50 1017 30.03 846 24.98 5 41 71 0.2 32.4
06:55 1017 30.03 846 24.98 5.2 41.4 70 0.2 32.4
07:00 1017 30.03 846 24.98 5.3 41.6 70 0.3 32.5
07:05 1017 30.03 846 24.98 5.4 41.8 69 0.3 32.5
07:10 1017 30.03 846 24.98 6 42.8 68 0.5 32.9
07:15 1017 30.03 846 24.98 6.6 43.8 65 0.5 32.9
07:20 1017 30.03 846 24.98 7 44.6 63 0.5 32.8
07:25 1017 30.03 846 24.98 7.4 45.2 61 0.2 32.4
07:30 1017 30.03 846 24.98 7.5 45.4 60 0.2 32.3
07:35 1017 30.03 846 24.98 7.9 46.1 58 0.2 32.4
07:40 1017 30.03 846 24.98 7.9 46.3 59 0.4 32.7
07:45 1017 30.03 846 24.98 7.7 45.9 59 0.1 32.3
07:50 1017 30.03 846 24.98 8 46.3 59 0.4 32.7
07:55 1017 30.03 846 24.98 7.7 45.8 60 0.4 32.7
08:00 1017 30.03 846 24.98 7.6 45.7 60 0.3 32.6
08:05 1017 30.03 846 24.98 7.6 45.8 59 0.2 32.4
08:10 1017 30.03 846 24.98 8.1 46.6 58 0.4 32.7
08:15 1017 30.03 846 24.98 8.3 46.9 57 0.3 32.5
08:20 1017 30.03 846 24.98 8.8 47.8 54 0.2 32.3
08:25 1017 30.03 846 24.98 9.1 48.4 54 0.3 32.6
08:30 1017 30.03 846 24.98 9.5 49.1 53 0.4 32.7
08:35 1017 30.03 846 24.98 9.5 49.1 54 0.7 33.2
08:40 1017 30.03 846 24.98 9.7 49.4 54 0.8 33.5
08:45 1017 30.03 846 24.98 10.2 50.4 51 0.7 33.3
08:50 1017 30.03 846 24.98 10.8 51.5 51 1.1 34
08:55 1017 30.03 846 24.98 10.5 51 55 1.9 35.3
09:00 1017 30.03 846 24.98 9.8 49.6 53 0.7 33.2
09:05 1017 30.03 846 24.98 10.2 50.3 54 1.2 34.2
09:10 1017 30.03 846 24.98 10.2 50.4 54 1.3 34.3
09:15 1017 30.03 846 24.98 10.4 50.8 54 1.5 34.7
09:20 1017 30.03 846 24.98 10.1 50.2 55 1.6 34.9
09:25 1016 30 846 24.98 10.1 50.1 53 1 33.8
09:30 1016 30 845 24.95 10.7 51.3 53 1.7 35.1
09:35 1016 30 845 24.95 10.6 51.1 54 1.6 34.9
09:40 1016 30 845 24.95 10.8 51.4 54 1.8 35.2
09:45 1016 30 845 24.95 11 51.8 52 1.7 35
09:50 1016 30 845 24.95 11.5 52.8 51 1.9 35.4
09:55 1016 30 845 24.95 11.1 52 53 2.1 35.7
10:00 1016 30 845 24.95 11.1 52 53 2 35.6
10:05 1016 30 845 24.95 11.6 52.9 52 2.1 35.7
10:10 1016 30 845 24.95 11.4 52.6 51 1.8 35.3
10:15 1016 30 845 24.95 12.4 54.3 50 2.3 36.2
10:20 1016 30 845 24.95 12.3 54.2 51 2.5 36.6
10:25 1016 30 845 24.95 12.1 53.8 47 1.3 34.4
10:30 1016 30 845 24.95 12.2 54 49 2 35.6
10:35 1016 30 845 24.95 12 53.7 50 1.9 35.4
10:40 1016 30 845 24.95 12.7 54.8 46 1.3 34.4
10:45 1016 30 845 24.95 13.5 56.3 46 2.1 35.7
10:50 1016 30 845 24.95 13.6 56.5 49 3.2 37.7
10:55 1016 30 845 24.95 12.8 55.1 49 2.4 36.3
11:00 1016 30 845 24.95 13.4 56.2 48 2.7 36.8
11:05 1016 30 845 24.95 13.5 56.3 46 2.3 36.1
11:10 1016 30 845 24.95 14.1 57.3 45 2.5 36.5
11:15 1016 30 845 24.95 13.4 56.1 47 2.5 36.5
11:20 1016 30 845 24.95 13.5 56.2 46 2.1 35.7
11:25 1016 30 845 24.95 13.7 56.6 47 2.6 36.7
11:30 1016 30 845 24.95 12.9 55.1 48 2.3 36.1
11:35 1016 30 845 24.95 13.2 55.7 45 1.7 35.1
11:40 1016 30 845 24.95 13.2 55.8 47 2.3 36.1
11:45 1016 30 845 24.95 13.2 55.7 46 1.9 35.5
11:50 1016 30 845 24.95 13 55.3 49 2.6 36.6
11:55 1016 30 845 24.95 13.1 55.6 48 2.4 36.3
12:00 1016 30 845 24.95 13.4 56.1 47 2.2 36
12:05 1016 30 845 24.95 13.1 55.7 48 2.3 36.2
12:10 1016 30 845 24.95 13.2 55.7 50 3 37.3
12:15 1016 30 845 24.95 12.2 53.9 53 2.9 37.2
12:20 1016 30 845 24.95 12.3 54.2 50 2.3 36.1
12:25 1016 30 845 24.95 12.2 54 51 2.5 36.6
12:30 1016 30 845 24.95 12.2 53.9 51 2.4 36.3
12:35 1015 29.97 845 24.95 12.4 54.3 48 1.8 35.2
12:40 1015 29.97 845 24.95 13.1 55.6 46 1.9 35.5
12:45 1015 29.97 845 24.95 13.5 56.2 47 2.4 36.3
12:50 1016 30 845 24.95 13.7 56.6 45 2 35.6
12:55 1016 30 845 24.95 13.3 55.9 47 2.1 35.9
13:00 1016 30 845 24.95 13.4 56.1 47 2.3 36.2
13:05 1016 30 845 24.95 13.5 56.3 48 2.6 36.8
13:10 1016 30 845 24.95 13.6 56.6 47 2.6 36.7
13:15 1016 30 845 24.95 13.6 56.4 48 2.9 37.1
13:20 1016 30 845 24.95 13.4 56.1 51 3.4 38.1
13:25 1016 30 845 24.95 13.3 55.9 50 3.2 37.7
13:30 1016 30 845 24.95 13.3 55.9 49 2.9 37.2
13:35 1016 30 845 24.95 13 55.5 50 2.9 37.3
13:40 1016 30 845 24.95 13 55.4 49 2.6 36.6
13:45 1016 30 845 24.95 13.5 56.3 48 2.7 36.8
13:50 1016 30 845 24.95 13.8 56.8 44 1.9 35.4
13:55 1016 30 845 24.95 13.9 57 44 2 35.6
14:00 1016 30 845 24.95 13.6 56.5 46 2.3 36.1
14:05 1016 30 845 24.95 13.3 56 46 2 35.7
14:10 1016 30 845 24.95 13.9 56.9 44 1.8 35.3
14:15 1016 30 845 24.95 13.6 56.5 47 2.7 36.8
14:20 1016 30 845 24.95 13.4 56.1 48 2.8 37
14:25 1016 30 845 24.95 13.7 56.7 45 1.9 35.5
14:30 1016 30 845 24.95 14.3 57.8 41 1.2 34.1
14:35 1016 30 845 24.95 14.4 57.9 40 1.2 34.2
14:40 1016 30 845 24.95 13.8 56.9 42 1.4 34.4
14:45 1016 30 845 24.95 14.4 57.8 43 1.9 35.4
14:50 1016 30 845 24.95 14.3 57.8 44 2.4 36.3
14:55 1015 29.97 845 24.95 14.3 57.7 44 2.4 36.3
15:00 1015 29.97 845 24.95 13.9 57 46 2.6 36.6
15:05 1015 29.97 845 24.95 13.8 56.8 47 2.7 36.8
15:10 1015 29.97 845 24.95 14.1 57.4 47 3 37.5
15:15 1015 29.97 844 24.92 13.9 57 48 3.2 37.7
15:20 1015 29.97 844 24.92 13.6 56.5 51 3.7 38.6
15:25 1015 29.97 844 24.92 13.6 56.4 50 3.5 38.4
15:30 1015 29.97 844 24.92 13.6 56.5 49 3.1 37.5
15:35 1015 29.97 844 24.92 13.8 56.8 49 3.3 38
15:40 1015 29.97 844 24.92 14 57.2 46 2.8 37
15:45 1015 29.97 844 24.92 14 57.2 45 2.4 36.3
15:50 1015 29.97 844 24.92 14.1 57.3 46 2.6 36.6
15:55 1015 29.97 844 24.92 14.3 57.7 47 3.3 38
16:00 1015 29.97 844 24.92 14.6 58.3 47 3.5 38.3
16:05 1015 29.97 844 24.92 15 59 45 3.4 38
16:10 1015 29.97 844 24.92 15.3 59.5 44 3.1 37.6
16:15 1015 29.97 844 24.92 15.6 60 43 3.1 37.6
16:20 1015 29.97 844 24.92 15.9 60.7 41 2.7 36.8
16:25 1015 29.97 844 24.92 16.1 61.1 40 2.6 36.7
16:30 1014 29.94 844 24.92 16.5 61.6 38 2.2 36
16:35 1014 29.94 844 24.92 17 62.5 34 0.9 33.7
16:40 1014 29.94 844 24.92 17 62.6 32 0.2 32.3
16:45 1014 29.94 844 24.92 17.1 62.7 31 -0.1 31.9
16:50 1014 29.94 844 24.92 17.4 63.4 31 0.3 32.5
16:55 1014 29.94 844 24.92 17.3 63.2 33 0.9 33.5
17:00 1014 29.94 844 24.92 17.6 63.6 30 -0.1 31.8
17:05 1014 29.94 844 24.92 17.2 63 30 -0.6 31
17:10 1014 29.94 843 24.89 17.1 62.8 29 -0.8 30.6
17:15 1014 29.94 844 24.92 17.2 63 29 -0.6 30.9
17:20 1014 29.94 843 24.89 17.4 63.3 28 -1.1 30.1
17:25 1014 29.94 843 24.89 18.1 64.6 20 -5.4 22.3
17:30 1014 29.94 843 24.89 18.9 66 19 -5.2 22.6
17:35 1014 29.94 843 24.89 19.3 66.8 16 -7.3 18.9
17:40 1014 29.94 843 24.89 19.3 66.8 15 -7.5 18.5
17:45 1014 29.94 843 24.89 19.3 66.8 15 -7.6 18.4
17:50 1014 29.94 843 24.89 19.3 66.7 18 -5.8 21.5
17:55 1014 29.94 843 24.89 19.3 66.7 18 -5.5 22.1
18:00 1014 29.94 843 24.89 19.2 66.6 17 -6 21.1
18:05 1014 29.94 843 24.89 19.1 66.5 18 -5.6 21.9
18:10 1014 29.94 843 24.89 19.4 66.9 18 -5.2 22.6
18:15 1014 29.94 843 24.89 19.4 66.9 20 -3.8 25.2
18:20 1014 29.94 843 24.89 19.1 66.3 25 -1.2 29.8
18:25 1014 29.94 843 24.89 18.6 65.4 37 3.7 38.6
18:30 1014 29.94 843 24.89 17.6 63.7 38 3.4 38.1
18:35 1014 29.94 843 24.89 17.4 63.3 32 0.8 33.5
18:40 1014 29.94 843 24.89 17.5 63.5 31 0.5 32.8
18:45 1014 29.94 843 24.89 17.2 62.9 38 2.8 37.1
18:50 1014 29.94 843 24.89 16.6 61.9 36 1.6 35
18:55 1014 29.94 844 24.92 16.6 61.8 36 1.5 34.7
19:00 1014 29.94 844 24.92 16.5 61.7 36 1.6 34.8
19:05 1015 29.97 844 24.92 16.6 61.8 37 1.8 35.2
19:10 1015 29.97 844 24.92 16.7 62 38 2.3 36.1
19:15 1015 29.97 844 24.92 16.6 61.9 37 1.9 35.4
19:20 1015 29.97 844 24.92 16.5 61.7 37 1.8 35.2
19:25 1015 29.97 844 24.92 16.3 61.4 38 2.1 35.9
19:30 1015 29.97 844 24.92 16.2 61.1 38 1.9 35.5
19:35 1015 29.97 844 24.92 16 60.8 42 3.1 37.6
19:40 1015 29.97 844 24.92 15.6 60.1 47 4.3 39.8
19:45 1015 29.97 844 24.92 15 59.1 49 4.4 39.9
19:50 1015 29.97 844 24.92 14.5 58 52 4.8 40.7
19:55 1015 29.97 845 24.95 14 57.1 54 4.8 40.7
20:00 1015 29.97 845 24.95 13.7 56.6 53 4.4 39.9
20:05 1015 29.97 845 24.95 13.6 56.4 53 4.3 39.7
20:10 1015 29.97 845 24.95 13.4 56 53 4.1 39.4
20:15 1016 30 845 24.95 13.2 55.8 54 4.1 39.4
20:20 1016 30 845 24.95 13.1 55.5 54 4.1 39.5
20:25 1016 30 845 24.95 12.7 54.9 55 4 39.2
20:30 1016 30 845 24.95 12.5 54.5 55 3.8 38.9
20:35 1016 30 845 24.95 12.3 54.2 55 3.6 38.5
20:40 1016 30 845 24.95 12 53.5 57 3.7 38.7
20:45 1016 30 845 24.95 11.5 52.8 58 3.5 38.4
20:50 1016 30 845 24.95 11.2 52.2 58 3.2 37.8
20:55 1016 30 846 24.98 11.2 52.1 59 3.4 38.1
21:00 1016 30 846 24.98 10.9 51.7 58 3.1 37.6
21:05 1016 30 846 24.98 10.9 51.6 57 2.9 37.2
21:10 1017 30.03 846 24.98 10.9 51.6 60 3.3 38
21:15 1017 30.03 846 24.98 10.1 50.2 62 3.3 37.9
21:20 1017 30.03 846 24.98 9.8 49.6 65 3.6 38.4
21:25 1017 30.03 846 24.98 9.6 49.3 63 2.9 37.2
21:30 1017 30.03 846 24.98 9.9 49.8 64 3.4 38.1
21:35 1017 30.03 846 24.98 9.6 49.3 64 3.2 37.7
21:40 1017 30.03 846 24.98 9.6 49.4 63 3 37.5
21:45 1017 30.03 846 24.98 9.7 49.5 62 2.9 37.2
21:50 1017 30.03 846 24.98 9.7 49.5 63 3 37.5
21:55 1017 30.03 846 24.98 9.5 49.1 65 3.2 37.7
22:00 1017 30.03 846 24.98 9.2 48.6 65 3 37.4
22:05 1017 30.03 846 24.98 9.2 48.5 65 3.1 37.6
22:10 1017 30.03 846 24.98 9 48.1 66 2.9 37.3
22:15 1017 30.03 847 25.01 9 48.1 67 3.1 37.6
22:20 1017 30.03 846 24.98 8.9 48 66 2.9 37.2
22:25 1017 30.03 846 24.98 9 48.2 65 2.8 37
22:30 1017 30.03 846 24.98 9.1 48.5 65 2.9 37.3
22:35 1017 30.03 847 25.01 9 48.1 66 2.9 37.2
22:40 1017 30.03 847 25.01 8.8 47.9 66 2.7 36.9
22:45 1017 30.03 847 25.01 8.8 47.8 66 2.8 37.1
22:50 1017 30.03 847 25.01 8.7 47.7 66 2.7 36.8
22:55 1017 30.03 847 25.01 8.8 47.9 65 2.6 36.6
23:00 1017 30.03 847 25.01 8.9 48 66 2.9 37.2
23:05 1017 30.03 847 25.01 8.7 47.7 66 2.6 36.7
23:10 1017 30.03 847 25.01 8.8 47.9 63 2.3 36.1
23:15 1017 30.03 847 25.01 9 48.2 64 2.7 36.8
23:20 1017 30.03 847 25.01 8.7 47.7 66 2.7 36.8
23:25 1017 30.03 847 25.01 8.6 47.4 66 2.6 36.6
23:30 1017 30.03 847 25.01 8.7 47.6 65 2.5 36.5
23:35 1017 30.03 847 25.01 8.8 47.8 65 2.6 36.7
23:40 1017 30.03 847 25.01 8.6 47.5 65 2.5 36.5
23:45 1017 30.03 847 25.01 8.6 47.4 66 2.6 36.7
23:50 1017 30.03 847 25.01 8.3 47 66 2.5 36.5
23:55 1017 30.03 847 25.01 8.4 47.1 66 2.4 36.2
24:00 1017 30.03 847 25.01 8.3 47 66 2.3 36.2